sensor_id;sensor_type;location;lat;lon;timestamp;P1;durP1;ratioP1;P2;durP2;ratioP2
1691;SDS011;843;52.054;8.552;2022-07-24T00:00:58;9.03;;;8.13;;
1691;SDS011;843;52.054;8.552;2022-07-24T00:03:24;9.23;;;6.70;;
1691;SDS011;843;52.054;8.552;2022-07-24T00:05:53;9.10;;;7.00;;
1691;SDS011;843;52.054;8.552;2022-07-24T00:08:20;7.30;;;6.50;;
1691;SDS011;843;52.054;8.552;2022-07-24T00:10:46;7.60;;;6.10;;
1691;SDS011;843;52.054;8.552;2022-07-24T00:13:19;7.17;;;6.47;;
1691;SDS011;843;52.054;8.552;2022-07-24T00:15:46;9.10;;;6.73;;
1691;SDS011;843;52.054;8.552;2022-07-24T00:18:13;6.93;;;6.33;;
1691;SDS011;843;52.054;8.552;2022-07-24T00:20:39;7.00;;;6.30;;
1691;SDS011;843;52.054;8.552;2022-07-24T00:23:07;6.40;;;5.80;;
1691;SDS011;843;52.054;8.552;2022-07-24T00:25:34;8.93;;;7.27;;
1691;SDS011;843;52.054;8.552;2022-07-24T00:28:01;7.07;;;6.33;;
1691;SDS011;843;52.054;8.552;2022-07-24T00:30:27;7.70;;;7.00;;
1691;SDS011;843;52.054;8.552;2022-07-24T00:32:54;7.50;;;6.37;;
1691;SDS011;843;52.054;8.552;2022-07-24T00:35:21;6.23;;;5.63;;
1691;SDS011;843;52.054;8.552;2022-07-24T00:37:48;7.30;;;6.60;;
1691;SDS011;843;52.054;8.552;2022-07-24T00:40:16;6.90;;;6.20;;
1691;SDS011;843;52.054;8.552;2022-07-24T00:42:42;7.17;;;6.47;;
1691;SDS011;843;52.054;8.552;2022-07-24T00:45:09;7.07;;;6.37;;
1691;SDS011;843;52.054;8.552;2022-07-24T00:47:36;7.00;;;6.30;;
1691;SDS011;843;52.054;8.552;2022-07-24T00:50:03;6.50;;;5.90;;
1691;SDS011;843;52.054;8.552;2022-07-24T00:52:31;6.67;;;6.07;;
1691;SDS011;843;52.054;8.552;2022-07-24T00:54:58;5.57;;;5.07;;
1691;SDS011;843;52.054;8.552;2022-07-24T00:57:26;6.63;;;5.00;;
1691;SDS011;843;52.054;8.552;2022-07-24T00:59:52;6.10;;;5.03;;
1691;SDS011;843;52.054;8.552;2022-07-24T01:02:19;5.30;;;4.50;;
1691;SDS011;843;52.054;8.552;2022-07-24T01:04:46;6.03;;;4.40;;
1691;SDS011;843;52.054;8.552;2022-07-24T01:07:13;5.80;;;4.70;;
1691;SDS011;843;52.054;8.552;2022-07-24T01:09:40;5.47;;;4.97;;
1691;SDS011;843;52.054;8.552;2022-07-24T01:12:07;5.50;;;5.00;;
1691;SDS011;843;52.054;8.552;2022-07-24T01:14:35;4.77;;;4.37;;
1691;SDS011;843;52.054;8.552;2022-07-24T01:17:03;4.90;;;4.50;;
1691;SDS011;843;52.054;8.552;2022-07-24T01:19:30;5.13;;;4.63;;
1691;SDS011;843;52.054;8.552;2022-07-24T01:21:58;5.13;;;4.30;;
1691;SDS011;843;52.054;8.552;2022-07-24T01:24:25;4.43;;;4.03;;
1691;SDS011;843;52.054;8.552;2022-07-24T01:26:52;9.70;;;4.30;;
1691;SDS011;843;52.054;8.552;2022-07-24T01:29:18;4.97;;;4.47;;
1691;SDS011;843;52.054;8.552;2022-07-24T01:31:45;6.20;;;4.60;;
1691;SDS011;843;52.054;8.552;2022-07-24T01:34:12;4.87;;;4.37;;
1691;SDS011;843;52.054;8.552;2022-07-24T01:36:39;5.60;;;5.10;;
1691;SDS011;843;52.054;8.552;2022-07-24T01:39:07;5.60;;;5.07;;
1691;SDS011;843;52.054;8.552;2022-07-24T01:41:34;6.20;;;5.07;;
1691;SDS011;843;52.054;8.552;2022-07-24T01:44:00;5.40;;;4.90;;
1691;SDS011;843;52.054;8.552;2022-07-24T01:46:27;5.90;;;5.20;;
1691;SDS011;843;52.054;8.552;2022-07-24T01:48:54;6.70;;;6.10;;
1691;SDS011;843;52.054;8.552;2022-07-24T01:51:21;7.27;;;6.13;;
1691;SDS011;843;52.054;8.552;2022-07-24T01:53:47;6.73;;;5.20;;
1691;SDS011;843;52.054;8.552;2022-07-24T01:56:15;7.03;;;4.93;;
1691;SDS011;843;52.054;8.552;2022-07-24T01:58:42;5.53;;;5.03;;
1691;SDS011;843;52.054;8.552;2022-07-24T02:01:09;5.60;;;5.10;;
1691;SDS011;843;52.054;8.552;2022-07-24T02:03:35;6.10;;;5.50;;
1691;SDS011;843;52.054;8.552;2022-07-24T02:06:04;5.73;;;5.10;;
1691;SDS011;843;52.054;8.552;2022-07-24T02:08:30;5.30;;;4.83;;
1691;SDS011;843;52.054;8.552;2022-07-24T02:10:57;5.57;;;5.03;;
1691;SDS011;843;52.054;8.552;2022-07-24T02:13:25;5.63;;;5.13;;
1691;SDS011;843;52.054;8.552;2022-07-24T02:15:52;6.47;;;5.10;;
1691;SDS011;843;52.054;8.552;2022-07-24T02:18:18;5.43;;;5.03;;
1691;SDS011;843;52.054;8.552;2022-07-24T02:20:45;5.70;;;5.20;;
1691;SDS011;843;52.054;8.552;2022-07-24T02:23:12;6.67;;;5.03;;
1691;SDS011;843;52.054;8.552;2022-07-24T02:25:42;5.93;;;5.43;;
1691;SDS011;843;52.054;8.552;2022-07-24T02:28:09;5.63;;;5.13;;
1691;SDS011;843;52.054;8.552;2022-07-24T02:30:38;5.57;;;5.07;;
1691;SDS011;843;52.054;8.552;2022-07-24T02:33:04;5.50;;;5.00;;
1691;SDS011;843;52.054;8.552;2022-07-24T02:35:31;6.80;;;5.83;;
1691;SDS011;843;52.054;8.552;2022-07-24T02:37:58;7.47;;;5.90;;
1691;SDS011;843;52.054;8.552;2022-07-24T02:40:25;6.60;;;5.43;;
1691;SDS011;843;52.054;8.552;2022-07-24T02:42:51;7.63;;;4.90;;
1691;SDS011;843;52.054;8.552;2022-07-24T02:45:18;5.33;;;4.90;;
1691;SDS011;843;52.054;8.552;2022-07-24T02:47:47;5.70;;;5.10;;
1691;SDS011;843;52.054;8.552;2022-07-24T02:50:15;7.20;;;5.60;;
1691;SDS011;843;52.054;8.552;2022-07-24T02:52:42;5.60;;;5.10;;
1691;SDS011;843;52.054;8.552;2022-07-24T02:55:09;5.63;;;5.00;;
1691;SDS011;843;52.054;8.552;2022-07-24T02:57:36;5.50;;;5.00;;
1691;SDS011;843;52.054;8.552;2022-07-24T03:00:03;6.13;;;5.57;;
1691;SDS011;843;52.054;8.552;2022-07-24T03:02:31;9.33;;;5.10;;
1691;SDS011;843;52.054;8.552;2022-07-24T03:04:59;6.30;;;5.50;;
1691;SDS011;843;52.054;8.552;2022-07-24T03:07:26;6.20;;;5.60;;
1691;SDS011;843;52.054;8.552;2022-07-24T03:09:53;7.67;;;5.47;;
1691;SDS011;843;52.054;8.552;2022-07-24T03:12:20;7.50;;;6.10;;
1691;SDS011;843;52.054;8.552;2022-07-24T03:14:46;6.00;;;5.50;;
1691;SDS011;843;52.054;8.552;2022-07-24T03:17:13;5.87;;;5.37;;
1691;SDS011;843;52.054;8.552;2022-07-24T03:19:40;6.40;;;5.80;;
1691;SDS011;843;52.054;8.552;2022-07-24T03:22:08;6.40;;;5.80;;
1691;SDS011;843;52.054;8.552;2022-07-24T03:24:34;6.93;;;5.63;;
1691;SDS011;843;52.054;8.552;2022-07-24T03:27:01;7.37;;;5.50;;
1691;SDS011;843;52.054;8.552;2022-07-24T03:29:28;6.37;;;5.60;;
1691;SDS011;843;52.054;8.552;2022-07-24T03:31:55;6.87;;;5.80;;
1691;SDS011;843;52.054;8.552;2022-07-24T03:34:22;6.57;;;5.70;;
1691;SDS011;843;52.054;8.552;2022-07-24T03:36:49;6.10;;;5.50;;
1691;SDS011;843;52.054;8.552;2022-07-24T03:39:16;6.23;;;5.63;;
1691;SDS011;843;52.054;8.552;2022-07-24T03:41:43;6.00;;;5.47;;
1691;SDS011;843;52.054;8.552;2022-07-24T03:44:10;6.07;;;5.57;;
1691;SDS011;843;52.054;8.552;2022-07-24T03:46:36;6.60;;;5.47;;
1691;SDS011;843;52.054;8.552;2022-07-24T03:49:04;5.27;;;4.87;;
1691;SDS011;843;52.054;8.552;2022-07-24T03:51:31;7.03;;;5.87;;
1691;SDS011;843;52.054;8.552;2022-07-24T03:54:00;7.97;;;5.63;;
1691;SDS011;843;52.054;8.552;2022-07-24T03:56:29;5.90;;;5.40;;
1691;SDS011;843;52.054;8.552;2022-07-24T03:58:55;7.00;;;5.13;;
1691;SDS011;843;52.054;8.552;2022-07-24T04:01:22;4.87;;;4.47;;
1691;SDS011;843;52.054;8.552;2022-07-24T04:03:49;5.23;;;4.73;;
1691;SDS011;843;52.054;8.552;2022-07-24T04:06:15;4.83;;;4.03;;
1691;SDS011;843;52.054;8.552;2022-07-24T04:08:42;4.57;;;4.07;;
1691;SDS011;843;52.054;8.552;2022-07-24T04:11:10;5.90;;;4.30;;
1691;SDS011;843;52.054;8.552;2022-07-24T04:13:38;5.57;;;4.50;;
1691;SDS011;843;52.054;8.552;2022-07-24T04:16:05;3.90;;;3.40;;
1691;SDS011;843;52.054;8.552;2022-07-24T04:18:31;4.40;;;4.00;;
1691;SDS011;843;52.054;8.552;2022-07-24T04:20:58;4.20;;;3.70;;
1691;SDS011;843;52.054;8.552;2022-07-24T04:23:25;4.50;;;3.43;;
1691;SDS011;843;52.054;8.552;2022-07-24T04:25:51;3.60;;;3.30;;
1691;SDS011;843;52.054;8.552;2022-07-24T04:28:18;4.60;;;3.60;;
1691;SDS011;843;52.054;8.552;2022-07-24T04:30:46;3.83;;;3.30;;
1691;SDS011;843;52.054;8.552;2022-07-24T04:33:13;4.10;;;3.00;;
1691;SDS011;843;52.054;8.552;2022-07-24T04:35:39;5.37;;;3.93;;
1691;SDS011;843;52.054;8.552;2022-07-24T04:38:06;3.23;;;2.87;;
1691;SDS011;843;52.054;8.552;2022-07-24T04:40:33;3.80;;;3.43;;
1691;SDS011;843;52.054;8.552;2022-07-24T04:43:00;3.67;;;3.27;;
1691;SDS011;843;52.054;8.552;2022-07-24T04:45:26;3.60;;;3.23;;
1691;SDS011;843;52.054;8.552;2022-07-24T04:47:54;4.23;;;3.70;;
1691;SDS011;843;52.054;8.552;2022-07-24T04:50:21;5.63;;;3.93;;
1691;SDS011;843;52.054;8.552;2022-07-24T04:52:48;10.30;;;3.83;;
1691;SDS011;843;52.054;8.552;2022-07-24T04:55:14;4.57;;;3.50;;
1691;SDS011;843;52.054;8.552;2022-07-24T04:57:42;4.90;;;3.30;;
1691;SDS011;843;52.054;8.552;2022-07-24T05:00:10;3.30;;;3.00;;
1691;SDS011;843;52.054;8.552;2022-07-24T05:02:38;4.07;;;3.70;;
1691;SDS011;843;52.054;8.552;2022-07-24T05:05:06;3.57;;;3.27;;
1691;SDS011;843;52.054;8.552;2022-07-24T05:07:33;5.87;;;3.60;;
1691;SDS011;843;52.054;8.552;2022-07-24T05:10:00;5.47;;;4.00;;
1691;SDS011;843;52.054;8.552;2022-07-24T05:12:27;5.43;;;3.07;;
1691;SDS011;843;52.054;8.552;2022-07-24T05:14:53;5.07;;;3.70;;
1691;SDS011;843;52.054;8.552;2022-07-24T05:17:20;3.93;;;3.40;;
1691;SDS011;843;52.054;8.552;2022-07-24T05:19:47;5.50;;;3.20;;
1691;SDS011;843;52.054;8.552;2022-07-24T05:22:15;4.80;;;3.80;;
1691;SDS011;843;52.054;8.552;2022-07-24T05:24:41;3.93;;;3.53;;
1691;SDS011;843;52.054;8.552;2022-07-24T05:27:08;5.13;;;3.40;;
1691;SDS011;843;52.054;8.552;2022-07-24T05:29:35;5.50;;;3.40;;
1691;SDS011;843;52.054;8.552;2022-07-24T05:32:02;3.53;;;3.00;;
1691;SDS011;843;52.054;8.552;2022-07-24T05:34:28;4.03;;;3.20;;
1691;SDS011;843;52.054;8.552;2022-07-24T05:36:55;5.93;;;3.40;;
1691;SDS011;843;52.054;8.552;2022-07-24T05:39:23;3.50;;;2.87;;
1691;SDS011;843;52.054;8.552;2022-07-24T05:41:50;4.90;;;3.50;;
1691;SDS011;843;52.054;8.552;2022-07-24T05:44:17;3.47;;;3.17;;
1691;SDS011;843;52.054;8.552;2022-07-24T05:46:43;3.90;;;3.03;;
1691;SDS011;843;52.054;8.552;2022-07-24T05:49:10;4.93;;;2.73;;
1691;SDS011;843;52.054;8.552;2022-07-24T05:51:37;3.03;;;2.73;;
1691;SDS011;843;52.054;8.552;2022-07-24T05:54:03;3.17;;;2.70;;
1691;SDS011;843;52.054;8.552;2022-07-24T05:56:31;3.87;;;2.57;;
1691;SDS011;843;52.054;8.552;2022-07-24T05:58:58;4.47;;;3.07;;
1691;SDS011;843;52.054;8.552;2022-07-24T06:01:25;3.40;;;2.70;;
1691;SDS011;843;52.054;8.552;2022-07-24T06:03:51;4.40;;;2.43;;
1691;SDS011;843;52.054;8.552;2022-07-24T06:06:18;3.97;;;2.47;;
1691;SDS011;843;52.054;8.552;2022-07-24T06:08:45;3.70;;;2.40;;
1691;SDS011;843;52.054;8.552;2022-07-24T06:11:11;4.50;;;2.83;;
1691;SDS011;843;52.054;8.552;2022-07-24T06:13:39;3.20;;;2.20;;
1691;SDS011;843;52.054;8.552;2022-07-24T06:16:06;2.50;;;2.30;;
1691;SDS011;843;52.054;8.552;2022-07-24T06:18:33;3.97;;;2.60;;
1691;SDS011;843;52.054;8.552;2022-07-24T06:21:00;3.07;;;2.77;;
1691;SDS011;843;52.054;8.552;2022-07-24T06:23:26;2.87;;;2.30;;
1691;SDS011;843;52.054;8.552;2022-07-24T06:25:53;3.50;;;2.27;;
1691;SDS011;843;52.054;8.552;2022-07-24T06:28:20;3.80;;;2.47;;
1691;SDS011;843;52.054;8.552;2022-07-24T06:30:48;6.50;;;2.63;;
1691;SDS011;843;52.054;8.552;2022-07-24T06:33:14;2.40;;;2.10;;
1691;SDS011;843;52.054;8.552;2022-07-24T06:35:41;3.67;;;2.90;;
1691;SDS011;843;52.054;8.552;2022-07-24T06:38:08;8.77;;;2.67;;
1691;SDS011;843;52.054;8.552;2022-07-24T06:40:35;5.20;;;2.07;;
1691;SDS011;843;52.054;8.552;2022-07-24T06:43:02;2.73;;;2.53;;
1691;SDS011;843;52.054;8.552;2022-07-24T06:45:29;3.07;;;2.70;;
1691;SDS011;843;52.054;8.552;2022-07-24T06:47:58;7.30;;;2.90;;
1691;SDS011;843;52.054;8.552;2022-07-24T06:50:25;3.70;;;2.30;;
1691;SDS011;843;52.054;8.552;2022-07-24T06:52:52;2.90;;;2.60;;
1691;SDS011;843;52.054;8.552;2022-07-24T06:55:19;2.83;;;2.30;;
1691;SDS011;843;52.054;8.552;2022-07-24T06:57:46;2.60;;;2.20;;
1691;SDS011;843;52.054;8.552;2022-07-24T07:00:13;2.83;;;2.27;;
1691;SDS011;843;52.054;8.552;2022-07-24T07:02:40;2.60;;;2.40;;
1691;SDS011;843;52.054;8.552;2022-07-24T07:05:08;4.63;;;2.23;;
1691;SDS011;843;52.054;8.552;2022-07-24T07:07:36;3.87;;;2.70;;
1691;SDS011;843;52.054;8.552;2022-07-24T07:10:03;2.47;;;2.27;;
1691;SDS011;843;52.054;8.552;2022-07-24T07:12:30;2.83;;;2.10;;
1691;SDS011;843;52.054;8.552;2022-07-24T07:14:57;2.80;;;2.47;;
1691;SDS011;843;52.054;8.552;2022-07-24T07:17:24;2.70;;;2.50;;
1691;SDS011;843;52.054;8.552;2022-07-24T07:19:51;3.50;;;2.27;;
1691;SDS011;843;52.054;8.552;2022-07-24T07:22:19;2.90;;;2.17;;
1691;SDS011;843;52.054;8.552;2022-07-24T07:24:46;3.67;;;3.27;;
1691;SDS011;843;52.054;8.552;2022-07-24T07:27:12;2.70;;;2.33;;
1691;SDS011;843;52.054;8.552;2022-07-24T07:29:39;2.30;;;2.10;;
1691;SDS011;843;52.054;8.552;2022-07-24T07:32:06;2.83;;;2.63;;
1691;SDS011;843;52.054;8.552;2022-07-24T07:34:32;3.20;;;2.87;;
1691;SDS011;843;52.054;8.552;2022-07-24T07:36:59;3.90;;;2.60;;
1691;SDS011;843;52.054;8.552;2022-07-24T07:39:27;2.70;;;2.50;;
1691;SDS011;843;52.054;8.552;2022-07-24T07:41:53;2.80;;;2.50;;
1691;SDS011;843;52.054;8.552;2022-07-24T07:44:20;5.30;;;2.93;;
1691;SDS011;843;52.054;8.552;2022-07-24T07:46:47;2.93;;;2.47;;
1691;SDS011;843;52.054;8.552;2022-07-24T07:49:14;3.80;;;2.97;;
1691;SDS011;843;52.054;8.552;2022-07-24T07:51:40;3.50;;;2.70;;
1691;SDS011;843;52.054;8.552;2022-07-24T07:54:07;3.57;;;3.10;;
1691;SDS011;843;52.054;8.552;2022-07-24T07:56:35;4.03;;;2.90;;
1691;SDS011;843;52.054;8.552;2022-07-24T07:59:02;4.90;;;3.60;;
1691;SDS011;843;52.054;8.552;2022-07-24T08:01:28;3.63;;;3.20;;
1691;SDS011;843;52.054;8.552;2022-07-24T08:03:55;3.53;;;3.23;;
1691;SDS011;843;52.054;8.552;2022-07-24T08:06:22;3.77;;;3.30;;
1691;SDS011;843;52.054;8.552;2022-07-24T08:08:48;4.17;;;3.33;;
1691;SDS011;843;52.054;8.552;2022-07-24T08:11:15;3.80;;;3.40;;
1691;SDS011;843;52.054;8.552;2022-07-24T08:13:43;4.10;;;3.70;;
1691;SDS011;843;52.054;8.552;2022-07-24T08:16:10;3.80;;;3.50;;
1691;SDS011;843;52.054;8.552;2022-07-24T08:18:37;4.87;;;3.57;;
1691;SDS011;843;52.054;8.552;2022-07-24T08:21:04;5.10;;;3.60;;
1691;SDS011;843;52.054;8.552;2022-07-24T08:23:31;4.13;;;3.80;;
1691;SDS011;843;52.054;8.552;2022-07-24T08:25:58;3.77;;;3.40;;
1691;SDS011;843;52.054;8.552;2022-07-24T08:28:25;3.60;;;3.30;;
1691;SDS011;843;52.054;8.552;2022-07-24T08:30:53;3.80;;;3.50;;
1691;SDS011;843;52.054;8.552;2022-07-24T08:33:20;4.40;;;3.90;;
1691;SDS011;843;52.054;8.552;2022-07-24T08:35:47;4.43;;;3.97;;
1691;SDS011;843;52.054;8.552;2022-07-24T08:38:13;4.30;;;3.90;;
1691;SDS011;843;52.054;8.552;2022-07-24T08:40:42;4.40;;;3.60;;
1691;SDS011;843;52.054;8.552;2022-07-24T08:43:08;5.17;;;4.20;;
1691;SDS011;843;52.054;8.552;2022-07-24T08:45:36;4.90;;;3.97;;
1691;SDS011;843;52.054;8.552;2022-07-24T08:48:06;3.90;;;3.53;;
1691;SDS011;843;52.054;8.552;2022-07-24T08:50:34;4.10;;;3.70;;
1691;SDS011;843;52.054;8.552;2022-07-24T08:53:02;3.70;;;3.40;;
1691;SDS011;843;52.054;8.552;2022-07-24T08:55:29;4.20;;;3.80;;
1691;SDS011;843;52.054;8.552;2022-07-24T08:57:57;4.40;;;4.00;;
1691;SDS011;843;52.054;8.552;2022-07-24T09:00:24;5.17;;;4.50;;
1691;SDS011;843;52.054;8.552;2022-07-24T09:02:51;6.30;;;4.07;;
1691;SDS011;843;52.054;8.552;2022-07-24T09:05:19;6.40;;;4.53;;
1691;SDS011;843;52.054;8.552;2022-07-24T09:07:46;4.40;;;4.00;;
1691;SDS011;843;52.054;8.552;2022-07-24T09:10:13;4.47;;;3.87;;
1691;SDS011;843;52.054;8.552;2022-07-24T09:12:42;4.60;;;4.20;;
1691;SDS011;843;52.054;8.552;2022-07-24T09:15:11;4.13;;;3.73;;
1691;SDS011;843;52.054;8.552;2022-07-24T09:17:46;7.03;;;4.20;;
1691;SDS011;843;52.054;8.552;2022-07-24T09:20:14;4.20;;;3.90;;
1691;SDS011;843;52.054;8.552;2022-07-24T09:22:42;4.60;;;4.20;;
1691;SDS011;843;52.054;8.552;2022-07-24T09:25:11;6.47;;;5.43;;
1691;SDS011;843;52.054;8.552;2022-07-24T09:27:40;9.50;;;6.53;;
1691;SDS011;843;52.054;8.552;2022-07-24T09:30:08;6.53;;;5.93;;
1691;SDS011;843;52.054;8.552;2022-07-24T09:32:35;5.73;;;5.13;;
1691;SDS011;843;52.054;8.552;2022-07-24T09:35:03;5.43;;;4.93;;
1691;SDS011;843;52.054;8.552;2022-07-24T09:37:30;6.20;;;5.60;;
1691;SDS011;843;52.054;8.552;2022-07-24T09:40:07;6.47;;;5.87;;
1691;SDS011;843;52.054;8.552;2022-07-24T09:42:35;5.50;;;4.83;;
1691;SDS011;843;52.054;8.552;2022-07-24T09:45:05;7.80;;;5.23;;
1691;SDS011;843;52.054;8.552;2022-07-24T09:47:36;7.50;;;5.10;;
1691;SDS011;843;52.054;8.552;2022-07-24T09:50:13;5.70;;;5.20;;
1691;SDS011;843;52.054;8.552;2022-07-24T09:52:42;6.27;;;4.50;;
1691;SDS011;843;52.054;8.552;2022-07-24T09:57:52;5.33;;;4.80;;
1691;SDS011;843;52.054;8.552;2022-07-24T10:00:19;6.33;;;5.73;;
1691;SDS011;843;52.054;8.552;2022-07-24T10:02:47;5.90;;;5.07;;
1691;SDS011;843;52.054;8.552;2022-07-24T10:05:15;5.57;;;5.07;;
1691;SDS011;843;52.054;8.552;2022-07-24T10:07:44;5.17;;;4.60;;
1691;SDS011;843;52.054;8.552;2022-07-24T10:10:14;5.67;;;5.17;;
1691;SDS011;843;52.054;8.552;2022-07-24T10:12:42;8.90;;;5.10;;
1691;SDS011;843;52.054;8.552;2022-07-24T10:15:11;8.53;;;5.80;;
1691;SDS011;843;52.054;8.552;2022-07-24T10:20:29;5.80;;;4.63;;
1691;SDS011;843;52.054;8.552;2022-07-24T10:23:02;5.23;;;4.83;;
1691;SDS011;843;52.054;8.552;2022-07-24T10:25:30;5.17;;;4.77;;
1691;SDS011;843;52.054;8.552;2022-07-24T10:28:10;5.30;;;4.80;;
1691;SDS011;843;52.054;8.552;2022-07-24T10:30:41;4.60;;;4.17;;
1691;SDS011;843;52.054;8.552;2022-07-24T10:33:08;6.60;;;5.20;;
1691;SDS011;843;52.054;8.552;2022-07-24T10:35:35;7.63;;;5.67;;
1691;SDS011;843;52.054;8.552;2022-07-24T10:38:04;5.10;;;4.60;;
1691;SDS011;843;52.054;8.552;2022-07-24T10:40:37;6.07;;;5.07;;
1691;SDS011;843;52.054;8.552;2022-07-24T10:43:14;5.87;;;5.27;;
1691;SDS011;843;52.054;8.552;2022-07-24T10:45:43;5.67;;;5.13;;
1691;SDS011;843;52.054;8.552;2022-07-24T10:48:27;5.57;;;4.73;;
1691;SDS011;843;52.054;8.552;2022-07-24T10:50:59;5.63;;;4.97;;
1691;SDS011;843;52.054;8.552;2022-07-24T10:53:30;5.17;;;4.77;;
1691;SDS011;843;52.054;8.552;2022-07-24T10:58:54;5.07;;;4.57;;
1691;SDS011;843;52.054;8.552;2022-07-24T11:01:30;5.57;;;4.83;;
1691;SDS011;843;52.054;8.552;2022-07-24T11:03:58;6.27;;;4.90;;
1691;SDS011;843;52.054;8.552;2022-07-24T11:06:38;5.23;;;4.83;;
1691;SDS011;843;52.054;8.552;2022-07-24T11:09:06;5.23;;;4.50;;
1691;SDS011;843;52.054;8.552;2022-07-24T11:11:32;5.80;;;5.23;;
1691;SDS011;843;52.054;8.552;2022-07-24T11:14:00;6.60;;;4.90;;
1691;SDS011;843;52.054;8.552;2022-07-24T11:16:31;6.10;;;5.40;;
1691;SDS011;843;52.054;8.552;2022-07-24T11:21:52;5.17;;;4.70;;
1691;SDS011;843;52.054;8.552;2022-07-24T11:24:28;6.40;;;5.57;;
1691;SDS011;843;52.054;8.552;2022-07-24T11:26:56;5.57;;;5.00;;
1691;SDS011;843;52.054;8.552;2022-07-24T11:29:25;5.80;;;5.30;;
1691;SDS011;843;52.054;8.552;2022-07-24T11:31:54;5.40;;;5.00;;
1691;SDS011;843;52.054;8.552;2022-07-24T11:34:21;5.67;;;5.07;;
1691;SDS011;843;52.054;8.552;2022-07-24T11:36:49;6.20;;;5.40;;
1691;SDS011;843;52.054;8.552;2022-07-24T11:39:17;4.80;;;4.40;;
1691;SDS011;843;52.054;8.552;2022-07-24T11:41:45;4.73;;;4.40;;
1691;SDS011;843;52.054;8.552;2022-07-24T11:44:13;8.37;;;5.97;;
1691;SDS011;843;52.054;8.552;2022-07-24T11:46:42;5.70;;;5.07;;
1691;SDS011;843;52.054;8.552;2022-07-24T11:49:09;6.77;;;5.03;;
1691;SDS011;843;52.054;8.552;2022-07-24T11:51:42;6.10;;;5.50;;
1691;SDS011;843;52.054;8.552;2022-07-24T11:54:10;5.50;;;5.07;;
1691;SDS011;843;52.054;8.552;2022-07-24T11:56:37;6.00;;;5.40;;
1691;SDS011;843;52.054;8.552;2022-07-24T11:59:05;5.53;;;5.03;;
1691;SDS011;843;52.054;8.552;2022-07-24T12:01:31;5.63;;;5.10;;
1691;SDS011;843;52.054;8.552;2022-07-24T12:03:59;5.47;;;4.97;;
1691;SDS011;843;52.054;8.552;2022-07-24T12:06:26;5.13;;;4.60;;
1691;SDS011;843;52.054;8.552;2022-07-24T12:08:56;5.60;;;4.87;;
1691;SDS011;843;52.054;8.552;2022-07-24T12:11:23;5.43;;;4.93;;
1691;SDS011;843;52.054;8.552;2022-07-24T12:13:50;6.17;;;5.57;;
1691;SDS011;843;52.054;8.552;2022-07-24T12:16:22;6.07;;;5.57;;
1691;SDS011;843;52.054;8.552;2022-07-24T12:18:49;8.20;;;5.47;;
1691;SDS011;843;52.054;8.552;2022-07-24T12:21:17;5.17;;;4.77;;
1691;SDS011;843;52.054;8.552;2022-07-24T12:23:44;5.37;;;4.90;;
1691;SDS011;843;52.054;8.552;2022-07-24T12:26:11;5.77;;;5.27;;
1691;SDS011;843;52.054;8.552;2022-07-24T12:28:37;5.93;;;4.57;;
1691;SDS011;843;52.054;8.552;2022-07-24T12:31:05;5.30;;;4.80;;
1691;SDS011;843;52.054;8.552;2022-07-24T12:33:33;5.80;;;5.30;;
1691;SDS011;843;52.054;8.552;2022-07-24T12:36:00;5.23;;;4.60;;
1691;SDS011;843;52.054;8.552;2022-07-24T12:38:35;5.67;;;5.17;;
1691;SDS011;843;52.054;8.552;2022-07-24T12:41:03;4.97;;;4.57;;
1691;SDS011;843;52.054;8.552;2022-07-24T12:43:32;5.33;;;4.83;;
1691;SDS011;843;52.054;8.552;2022-07-24T12:46:06;5.50;;;5.00;;
1691;SDS011;843;52.054;8.552;2022-07-24T12:48:33;6.23;;;5.10;;
1691;SDS011;843;52.054;8.552;2022-07-24T12:51:02;5.37;;;4.97;;
1691;SDS011;843;52.054;8.552;2022-07-24T12:53:32;5.17;;;4.53;;
1691;SDS011;843;52.054;8.552;2022-07-24T12:56:02;5.90;;;4.53;;
1691;SDS011;843;52.054;8.552;2022-07-24T12:58:49;5.20;;;4.70;;
1691;SDS011;843;52.054;8.552;2022-07-24T13:01:16;6.43;;;5.07;;
1691;SDS011;843;52.054;8.552;2022-07-24T13:03:48;4.73;;;4.30;;
1691;SDS011;843;52.054;8.552;2022-07-24T13:06:16;5.00;;;4.57;;
1691;SDS011;843;52.054;8.552;2022-07-24T13:08:42;5.13;;;4.73;;
1691;SDS011;843;52.054;8.552;2022-07-24T13:11:11;5.27;;;4.77;;
1691;SDS011;843;52.054;8.552;2022-07-24T13:13:37;5.40;;;5.00;;
1691;SDS011;843;52.054;8.552;2022-07-24T13:16:04;4.93;;;4.53;;
1691;SDS011;843;52.054;8.552;2022-07-24T13:18:31;4.47;;;4.17;;
1691;SDS011;843;52.054;8.552;2022-07-24T13:20:57;5.00;;;4.23;;
1691;SDS011;843;52.054;8.552;2022-07-24T13:23:24;6.00;;;5.30;;
1691;SDS011;843;52.054;8.552;2022-07-24T13:25:51;6.33;;;4.13;;
1691;SDS011;843;52.054;8.552;2022-07-24T13:28:19;4.93;;;4.47;;
1691;SDS011;843;52.054;8.552;2022-07-24T13:30:45;5.70;;;4.37;;
1691;SDS011;843;52.054;8.552;2022-07-24T13:33:12;4.90;;;4.40;;
1691;SDS011;843;52.054;8.552;2022-07-24T13:35:39;4.67;;;4.10;;
1691;SDS011;843;52.054;8.552;2022-07-24T13:38:05;6.00;;;4.33;;
1691;SDS011;843;52.054;8.552;2022-07-24T13:40:32;4.80;;;4.40;;
1691;SDS011;843;52.054;8.552;2022-07-24T13:42:59;5.07;;;4.57;;
1691;SDS011;843;52.054;8.552;2022-07-24T13:45:27;4.73;;;4.33;;
1691;SDS011;843;52.054;8.552;2022-07-24T13:47:54;4.20;;;3.80;;
1691;SDS011;843;52.054;8.552;2022-07-24T13:50:20;5.13;;;3.80;;
1691;SDS011;843;52.054;8.552;2022-07-24T13:52:47;4.10;;;3.80;;
1691;SDS011;843;52.054;8.552;2022-07-24T13:55:14;4.77;;;4.30;;
1691;SDS011;843;52.054;8.552;2022-07-24T13:57:40;7.20;;;3.90;;
1691;SDS011;843;52.054;8.552;2022-07-24T14:00:07;11.60;;;4.80;;
1691;SDS011;843;52.054;8.552;2022-07-24T14:02:36;5.00;;;4.40;;
1691;SDS011;843;52.054;8.552;2022-07-24T14:05:03;4.80;;;4.30;;
1691;SDS011;843;52.054;8.552;2022-07-24T14:07:30;4.67;;;4.07;;
1691;SDS011;843;52.054;8.552;2022-07-24T14:09:56;4.70;;;4.23;;
1691;SDS011;843;52.054;8.552;2022-07-24T14:12:23;4.50;;;4.10;;
1691;SDS011;843;52.054;8.552;2022-07-24T14:14:51;4.23;;;3.83;;
1691;SDS011;843;52.054;8.552;2022-07-24T14:17:17;5.90;;;4.80;;
1691;SDS011;843;52.054;8.552;2022-07-24T14:19:45;4.60;;;4.13;;
1691;SDS011;843;52.054;8.552;2022-07-24T14:22:12;4.50;;;3.67;;
1691;SDS011;843;52.054;8.552;2022-07-24T14:24:38;5.43;;;4.20;;
1691;SDS011;843;52.054;8.552;2022-07-24T14:27:05;4.20;;;3.80;;
1691;SDS011;843;52.054;8.552;2022-07-24T14:29:32;4.53;;;4.13;;
1691;SDS011;843;52.054;8.552;2022-07-24T14:31:59;5.10;;;4.60;;
1691;SDS011;843;52.054;8.552;2022-07-24T14:34:25;4.17;;;3.87;;
1691;SDS011;843;52.054;8.552;2022-07-24T14:36:53;5.00;;;4.40;;
1691;SDS011;843;52.054;8.552;2022-07-24T14:39:20;8.03;;;4.00;;
1691;SDS011;843;52.054;8.552;2022-07-24T14:41:46;4.20;;;3.80;;
1691;SDS011;843;52.054;8.552;2022-07-24T14:44:13;4.83;;;4.43;;
1691;SDS011;843;52.054;8.552;2022-07-24T14:46:41;5.17;;;4.63;;
1691;SDS011;843;52.054;8.552;2022-07-24T14:49:08;4.90;;;4.50;;
1691;SDS011;843;52.054;8.552;2022-07-24T14:51:35;4.20;;;3.80;;
1691;SDS011;843;52.054;8.552;2022-07-24T14:54:03;5.80;;;3.80;;
1691;SDS011;843;52.054;8.552;2022-07-24T14:56:30;4.23;;;3.87;;
1691;SDS011;843;52.054;8.552;2022-07-24T14:58:57;5.50;;;4.07;;
1691;SDS011;843;52.054;8.552;2022-07-24T15:01:24;4.90;;;4.40;;
1691;SDS011;843;52.054;8.552;2022-07-24T15:03:51;5.10;;;4.43;;
1691;SDS011;843;52.054;8.552;2022-07-24T15:06:17;5.50;;;4.20;;
1691;SDS011;843;52.054;8.552;2022-07-24T15:08:44;5.43;;;4.50;;
1691;SDS011;843;52.054;8.552;2022-07-24T15:11:12;4.67;;;4.00;;
1691;SDS011;843;52.054;8.552;2022-07-24T15:13:39;4.47;;;4.07;;
1691;SDS011;843;52.054;8.552;2022-07-24T15:16:06;4.00;;;3.60;;
1691;SDS011;843;52.054;8.552;2022-07-24T15:18:34;4.73;;;4.10;;
1691;SDS011;843;52.054;8.552;2022-07-24T15:21:02;4.50;;;4.07;;
1691;SDS011;843;52.054;8.552;2022-07-24T15:23:29;5.40;;;4.97;;
1691;SDS011;843;52.054;8.552;2022-07-24T15:25:55;7.00;;;4.57;;
1691;SDS011;843;52.054;8.552;2022-07-24T15:28:23;4.07;;;3.67;;
1691;SDS011;843;52.054;8.552;2022-07-24T15:30:51;5.50;;;4.07;;
1691;SDS011;843;52.054;8.552;2022-07-24T15:33:18;4.30;;;3.90;;
1691;SDS011;843;52.054;8.552;2022-07-24T15:35:44;5.93;;;4.50;;
1691;SDS011;843;52.054;8.552;2022-07-24T15:38:11;4.60;;;4.20;;
1691;SDS011;843;52.054;8.552;2022-07-24T15:40:38;4.50;;;4.10;;
1691;SDS011;843;52.054;8.552;2022-07-24T15:43:05;6.03;;;4.30;;